Appleton, Wisconsin
Current Conditions -  °F | °C
As of 12:35 AM on Monday 24 Nov 2014 (Local Time) from KATW Reporting Station
Drizzle Drizzle  
Wind Chill: 38°   Ceiling: 200
Heat Index: 41°   Visibility: 0.5mi
Dew Point: 41°   Wind: 5mph
Humidity: 100%   Direction: 350°N
Pressure: 29.09"   Gusts: NA
Location:  44.26°N, 88.42°W
Report Text: KATW 240635Z AUTO 35004KT 1/2SM -DZ OVC002 05/05 A2909 RMK AO2 P0001
Loading
Personal Weather Stations






























Interactive Weather Map New forecast layout! Learn more

10-Day Weather Forecast

Advertisements
Track Severe Weather on mobile